sensor_id;sensor_type;location;lat;lon;timestamp;P1;durP1;ratioP1;P2;durP2;ratioP2
21010;SDS011;10663;42.714;23.274;2023-04-03T00:20:25;5.40;;;3.70;;
21010;SDS011;10663;42.714;23.274;2023-04-03T00:21:57;5.95;;;3.92;;
21010;SDS011;10663;42.714;23.274;2023-04-03T00:23:28;5.85;;;3.70;;
21010;SDS011;10663;42.714;23.274;2023-04-03T00:24:59;5.90;;;3.90;;
21010;SDS011;10663;42.714;23.274;2023-04-03T00:26:30;4.32;;;3.40;;
21010;SDS011;10663;42.714;23.274;2023-04-03T00:28:01;4.35;;;3.53;;
21010;SDS011;10663;42.714;23.274;2023-04-03T00:29:32;5.82;;;3.60;;
21010;SDS011;10663;42.714;23.274;2023-04-03T00:31:03;6.97;;;4.23;;
21010;SDS011;10663;42.714;23.274;2023-04-03T00:32:34;7.82;;;4.70;;
21010;SDS011;10663;42.714;23.274;2023-04-03T00:34:06;6.57;;;4.82;;
21010;SDS011;10663;42.714;23.274;2023-04-03T07:27:46;14.95;;;9.35;;
21010;SDS011;10663;42.714;23.274;2023-04-03T07:30:52;14.40;;;8.60;;
21010;SDS011;10663;42.714;23.274;2023-04-03T07:34:01;10.82;;;6.00;;
21010;SDS011;10663;42.714;23.274;2023-04-03T07:35:33;9.38;;;6.05;;
21010;SDS011;10663;42.714;23.274;2023-04-03T07:53:46;9.50;;;6.47;;
21010;SDS011;10663;42.714;23.274;2023-04-03T07:55:17;8.70;;;6.23;;
21010;SDS011;10663;42.714;23.274;2023-04-03T07:56:48;10.87;;;7.17;;
21010;SDS011;10663;42.714;23.274;2023-04-03T07:58:19;12.02;;;7.65;;
21010;SDS011;10663;42.714;23.274;2023-04-03T07:59:50;10.43;;;7.57;;
21010;SDS011;10663;42.714;23.274;2023-04-03T09:47:19;16.45;;;10.82;;
21010;SDS011;10663;42.714;23.274;2023-04-03T09:48:57;16.63;;;11.40;;
21010;SDS011;10663;42.714;23.274;2023-04-03T09:50:29;14.93;;;10.40;;
21010;SDS011;10663;42.714;23.274;2023-04-03T09:52:15;16.35;;;11.15;;
21010;SDS011;10663;42.714;23.274;2023-04-03T09:53:55;18.95;;;12.00;;
21010;SDS011;10663;42.714;23.274;2023-04-03T09:55:26;24.20;;;14.05;;
21010;SDS011;10663;42.714;23.274;2023-04-03T09:57:02;21.38;;;15.30;;
21010;SDS011;10663;42.714;23.274;2023-04-03T09:58:40;24.52;;;16.30;;
21010;SDS011;10663;42.714;23.274;2023-04-03T10:43:36;10.85;;;7.47;;
21010;SDS011;10663;42.714;23.274;2023-04-03T10:46:53;10.63;;;7.53;;
21010;SDS011;10663;42.714;23.274;2023-04-03T10:52:02;9.25;;;6.47;;
21010;SDS011;10663;42.714;23.274;2023-04-03T10:53:56;7.05;;;5.40;;
21010;SDS011;10663;42.714;23.274;2023-04-03T10:57:13;7.57;;;5.20;;
21010;SDS011;10663;42.714;23.274;2023-04-03T10:58:44;7.88;;;5.32;;
21010;SDS011;10663;42.714;23.274;2023-04-03T11:00:25;9.73;;;6.32;;
21010;SDS011;10663;42.714;23.274;2023-04-03T11:02:28;6.40;;;5.10;;
21010;SDS011;10663;42.714;23.274;2023-04-03T11:04:04;10.02;;;5.25;;
21010;SDS011;10663;42.714;23.274;2023-04-03T11:07:36;8.55;;;5.07;;
21010;SDS011;10663;42.714;23.274;2023-04-03T11:09:21;8.68;;;5.00;;
21010;SDS011;10663;42.714;23.274;2023-04-03T11:11:03;6.40;;;5.03;;
21010;SDS011;10663;42.714;23.274;2023-04-03T11:12:42;9.23;;;5.63;;
21010;SDS011;10663;42.714;23.274;2023-04-03T11:14:24;8.02;;;5.03;;
21010;SDS011;10663;42.714;23.274;2023-04-03T11:15:58;5.47;;;4.20;;
21010;SDS011;10663;42.714;23.274;2023-04-03T11:17:43;7.45;;;4.38;;
21010;SDS011;10663;42.714;23.274;2023-04-03T11:19:21;5.88;;;4.70;;
21010;SDS011;10663;42.714;23.274;2023-04-03T11:20:59;7.25;;;4.68;;
21010;SDS011;10663;42.714;23.274;2023-04-03T11:22:45;6.03;;;4.90;;
21010;SDS011;10663;42.714;23.274;2023-04-03T11:24:24;6.10;;;4.60;;
21010;SDS011;10663;42.714;23.274;2023-04-03T11:25:59;6.95;;;4.60;;
21010;SDS011;10663;42.714;23.274;2023-04-03T11:27:45;8.82;;;4.82;;
21010;SDS011;10663;42.714;23.274;2023-04-03T11:29:22;6.68;;;4.32;;
21010;SDS011;10663;42.714;23.274;2023-04-03T11:33:20;6.57;;;4.50;;
21010;SDS011;10663;42.714;23.274;2023-04-03T11:35:10;7.20;;;5.25;;
21010;SDS011;10663;42.714;23.274;2023-04-03T11:36:45;8.03;;;4.60;;
21010;SDS011;10663;42.714;23.274;2023-04-03T13:22:01;9.02;;;6.10;;
21010;SDS011;10663;42.714;23.274;2023-04-03T13:23:36;8.55;;;6.03;;
21010;SDS011;10663;42.714;23.274;2023-04-03T13:44:22;8.10;;;6.43;;
21010;SDS011;10663;42.714;23.274;2023-04-03T16:17:29;8.55;;;6.10;;
21010;SDS011;10663;42.714;23.274;2023-04-03T16:28:09;9.32;;;7.70;;
21010;SDS011;10663;42.714;23.274;2023-04-03T16:34:12;7.70;;;6.90;;
21010;SDS011;10663;42.714;23.274;2023-04-03T16:38:46;10.18;;;7.90;;
21010;SDS011;10663;42.714;23.274;2023-04-03T16:40:17;8.98;;;7.88;;
21010;SDS011;10663;42.714;23.274;2023-04-03T18:05:20;6.03;;;5.30;;
21010;SDS011;10663;42.714;23.274;2023-04-03T18:06:52;7.30;;;5.10;;
21010;SDS011;10663;42.714;23.274;2023-04-03T18:08:24;7.30;;;5.60;;
21010;SDS011;10663;42.714;23.274;2023-04-03T18:09:56;5.57;;;4.53;;
21010;SDS011;10663;42.714;23.274;2023-04-03T18:11:28;6.20;;;5.13;;
21010;SDS011;10663;42.714;23.274;2023-04-03T18:13:00;5.40;;;4.72;;
21010;SDS011;10663;42.714;23.274;2023-04-03T18:14:31;7.10;;;4.70;;
21010;SDS011;10663;42.714;23.274;2023-04-03T18:16:04;8.83;;;6.20;;
21010;SDS011;10663;42.714;23.274;2023-04-03T18:17:36;6.25;;;5.28;;
21010;SDS011;10663;42.714;23.274;2023-04-03T18:19:09;7.35;;;5.10;;
21010;SDS011;10663;42.714;23.274;2023-04-03T18:20:41;7.65;;;5.30;;
21010;SDS011;10663;42.714;23.274;2023-04-03T18:22:14;7.13;;;5.40;;
21010;SDS011;10663;42.714;23.274;2023-04-03T18:23:51;7.40;;;4.88;;
21010;SDS011;10663;42.714;23.274;2023-04-03T19:52:17;7.10;;;4.90;;
21010;SDS011;10663;42.714;23.274;2023-04-03T19:53:48;6.07;;;4.90;;
21010;SDS011;10663;42.714;23.274;2023-04-03T19:55:19;5.57;;;4.82;;
21010;SDS011;10663;42.714;23.274;2023-04-03T19:56:50;6.60;;;5.90;;
21010;SDS011;10663;42.714;23.274;2023-04-03T20:10:30;4.32;;;3.60;;
21010;SDS011;10663;42.714;23.274;2023-04-03T20:12:01;6.00;;;3.70;;
21010;SDS011;10663;42.714;23.274;2023-04-03T20:13:33;3.63;;;3.33;;
21010;SDS011;10663;42.714;23.274;2023-04-03T20:15:05;4.40;;;3.50;;
21010;SDS011;10663;42.714;23.274;2023-04-03T20:16:38;3.67;;;3.37;;
21010;SDS011;10663;42.714;23.274;2023-04-03T20:18:10;3.90;;;3.40;;
21010;SDS011;10663;42.714;23.274;2023-04-03T20:19:47;5.15;;;3.35;;
21010;SDS011;10663;42.714;23.274;2023-04-03T20:21:18;4.78;;;3.42;;
21010;SDS011;10663;42.714;23.274;2023-04-03T20:22:50;4.95;;;3.40;;
21010;SDS011;10663;42.714;23.274;2023-04-03T20:24:23;3.75;;;3.35;;
21010;SDS011;10663;42.714;23.274;2023-04-03T20:25:54;4.40;;;3.70;;
21010;SDS011;10663;42.714;23.274;2023-04-03T20:27:27;5.25;;;3.45;;
21010;SDS011;10663;42.714;23.274;2023-04-03T20:28:59;4.18;;;3.47;;
21010;SDS011;10663;42.714;23.274;2023-04-03T20:30:31;3.78;;;3.15;;
21010;SDS011;10663;42.714;23.274;2023-04-03T20:32:03;6.05;;;3.80;;
21010;SDS011;10663;42.714;23.274;2023-04-03T20:33:34;5.55;;;3.67;;
21010;SDS011;10663;42.714;23.274;2023-04-03T20:35:06;5.35;;;3.55;;
21010;SDS011;10663;42.714;23.274;2023-04-03T20:36:38;6.00;;;3.35;;
21010;SDS011;10663;42.714;23.274;2023-04-03T20:38:10;4.32;;;3.40;;
21010;SDS011;10663;42.714;23.274;2023-04-03T20:39:41;3.90;;;3.00;;
21010;SDS011;10663;42.714;23.274;2023-04-03T20:41:13;4.35;;;3.05;;
21010;SDS011;10663;42.714;23.274;2023-04-03T20:42:44;4.30;;;2.80;;
21010;SDS011;10663;42.714;23.274;2023-04-03T20:44:15;4.60;;;3.20;;
21010;SDS011;10663;42.714;23.274;2023-04-03T20:45:48;3.78;;;3.00;;
21010;SDS011;10663;42.714;23.274;2023-04-03T20:47:19;3.83;;;3.30;;
21010;SDS011;10663;42.714;23.274;2023-04-03T20:48:50;4.43;;;3.38;;
21010;SDS011;10663;42.714;23.274;2023-04-03T20:50:22;4.00;;;3.15;;
21010;SDS011;10663;42.714;23.274;2023-04-03T20:51:53;4.22;;;3.10;;
21010;SDS011;10663;42.714;23.274;2023-04-03T20:53:24;5.20;;;3.10;;
21010;SDS011;10663;42.714;23.274;2023-04-03T20:54:56;3.90;;;3.25;;
21010;SDS011;10663;42.714;23.274;2023-04-03T20:56:28;4.28;;;3.35;;
21010;SDS011;10663;42.714;23.274;2023-04-03T20:58:02;5.30;;;3.15;;
21010;SDS011;10663;42.714;23.274;2023-04-03T20:59:33;3.40;;;3.03;;
21010;SDS011;10663;42.714;23.274;2023-04-03T21:01:15;4.47;;;3.20;;
21010;SDS011;10663;42.714;23.274;2023-04-03T21:02:48;4.75;;;3.05;;
21010;SDS011;10663;42.714;23.274;2023-04-03T21:20:33;3.15;;;2.47;;
21010;SDS011;10663;42.714;23.274;2023-04-03T21:22:06;2.85;;;2.42;;
21010;SDS011;10663;42.714;23.274;2023-04-03T21:23:37;3.60;;;2.53;;
21010;SDS011;10663;42.714;23.274;2023-04-03T21:25:08;3.55;;;2.65;;
21010;SDS011;10663;42.714;23.274;2023-04-03T21:26:39;3.90;;;2.65;;
21010;SDS011;10663;42.714;23.274;2023-04-03T21:28:11;3.15;;;2.53;;
21010;SDS011;10663;42.714;23.274;2023-04-03T21:29:42;3.27;;;2.30;;
21010;SDS011;10663;42.714;23.274;2023-04-03T21:31:13;4.18;;;2.55;;
21010;SDS011;10663;42.714;23.274;2023-04-03T21:32:44;2.60;;;2.20;;
21010;SDS011;10663;42.714;23.274;2023-04-03T21:34:15;3.37;;;2.40;;
21010;SDS011;10663;42.714;23.274;2023-04-03T21:35:47;2.83;;;2.60;;
21010;SDS011;10663;42.714;23.274;2023-04-03T21:37:19;2.67;;;2.30;;
21010;SDS011;10663;42.714;23.274;2023-04-03T21:38:49;2.95;;;2.53;;
21010;SDS011;10663;42.714;23.274;2023-04-03T21:40:21;3.78;;;2.67;;
21010;SDS011;10663;42.714;23.274;2023-04-03T21:41:52;3.78;;;2.67;;
21010;SDS011;10663;42.714;23.274;2023-04-03T21:43:23;3.85;;;2.90;;
21010;SDS011;10663;42.714;23.274;2023-04-03T21:44:54;3.33;;;2.60;;
21010;SDS011;10663;42.714;23.274;2023-04-03T21:46:25;3.65;;;2.80;;
21010;SDS011;10663;42.714;23.274;2023-04-03T21:47:56;4.10;;;2.90;;
21010;SDS011;10663;42.714;23.274;2023-04-03T21:49:28;4.40;;;2.80;;
21010;SDS011;10663;42.714;23.274;2023-04-03T21:51:02;4.85;;;2.80;;
21010;SDS011;10663;42.714;23.274;2023-04-03T21:52:34;3.63;;;2.53;;
21010;SDS011;10663;42.714;23.274;2023-04-03T21:54:05;3.08;;;2.78;;
21010;SDS011;10663;42.714;23.274;2023-04-03T21:55:36;4.63;;;2.95;;
21010;SDS011;10663;42.714;23.274;2023-04-03T21:57:07;4.10;;;2.63;;
21010;SDS011;10663;42.714;23.274;2023-04-03T21:58:41;4.35;;;2.80;;
21010;SDS011;10663;42.714;23.274;2023-04-03T22:00:12;4.65;;;2.80;;
21010;SDS011;10663;42.714;23.274;2023-04-03T22:01:43;3.03;;;2.63;;
21010;SDS011;10663;42.714;23.274;2023-04-03T22:03:18;4.00;;;2.80;;
21010;SDS011;10663;42.714;23.274;2023-04-03T22:04:50;4.03;;;2.80;;
21010;SDS011;10663;42.714;23.274;2023-04-03T22:06:21;4.13;;;3.10;;
21010;SDS011;10663;42.714;23.274;2023-04-03T22:07:52;5.13;;;3.05;;
21010;SDS011;10663;42.714;23.274;2023-04-03T22:09:23;5.25;;;3.22;;
21010;SDS011;10663;42.714;23.274;2023-04-03T22:11:05;6.13;;;3.73;;
21010;SDS011;10663;42.714;23.274;2023-04-03T22:12:37;5.10;;;3.22;;
21010;SDS011;10663;42.714;23.274;2023-04-03T22:14:08;4.78;;;3.10;;
21010;SDS011;10663;42.714;23.274;2023-04-03T22:15:39;5.20;;;3.35;;
21010;SDS011;10663;42.714;23.274;2023-04-03T22:17:13;6.45;;;4.07;;
21010;SDS011;10663;42.714;23.274;2023-04-03T22:18:44;7.90;;;4.47;;
21010;SDS011;10663;42.714;23.274;2023-04-03T22:20:15;6.47;;;4.18;;
21010;SDS011;10663;42.714;23.274;2023-04-03T22:21:46;7.65;;;4.28;;
21010;SDS011;10663;42.714;23.274;2023-04-03T22:23:17;6.00;;;3.97;;
21010;SDS011;10663;42.714;23.274;2023-04-03T22:24:48;5.03;;;3.00;;
21010;SDS011;10663;42.714;23.274;2023-04-03T22:26:20;4.78;;;2.40;;
21010;SDS011;10663;42.714;23.274;2023-04-03T22:27:51;3.17;;;2.50;;
21010;SDS011;10663;42.714;23.274;2023-04-03T22:29:22;3.15;;;2.40;;
21010;SDS011;10663;42.714;23.274;2023-04-03T22:30:53;3.58;;;2.30;;
21010;SDS011;10663;42.714;23.274;2023-04-03T22:32:25;3.53;;;2.50;;
21010;SDS011;10663;42.714;23.274;2023-04-03T22:33:56;3.20;;;2.30;;
21010;SDS011;10663;42.714;23.274;2023-04-03T22:35:27;3.90;;;2.40;;
21010;SDS011;10663;42.714;23.274;2023-04-03T22:36:58;3.72;;;2.72;;
21010;SDS011;10663;42.714;23.274;2023-04-03T22:38:29;2.92;;;2.60;;
21010;SDS011;10663;42.714;23.274;2023-04-03T22:40:01;2.83;;;2.50;;
21010;SDS011;10663;42.714;23.274;2023-04-03T22:41:33;3.03;;;2.40;;
21010;SDS011;10663;42.714;23.274;2023-04-03T22:43:04;4.93;;;2.53;;
21010;SDS011;10663;42.714;23.274;2023-04-03T22:44:35;2.80;;;2.50;;
21010;SDS011;10663;42.714;23.274;2023-04-03T22:46:07;2.83;;;2.20;;
21010;SDS011;10663;42.714;23.274;2023-04-03T22:47:38;2.50;;;2.30;;
21010;SDS011;10663;42.714;23.274;2023-04-03T22:49:10;3.17;;;2.70;;
21010;SDS011;10663;42.714;23.274;2023-04-03T22:50:41;3.40;;;2.47;;
21010;SDS011;10663;42.714;23.274;2023-04-03T22:52:13;6.10;;;3.10;;
21010;SDS011;10663;42.714;23.274;2023-04-03T22:53:44;3.08;;;2.72;;
21010;SDS011;10663;42.714;23.274;2023-04-03T22:55:15;3.67;;;2.95;;
21010;SDS011;10663;42.714;23.274;2023-04-03T22:56:46;3.55;;;2.72;;
21010;SDS011;10663;42.714;23.274;2023-04-03T22:58:17;3.17;;;2.80;;
21010;SDS011;10663;42.714;23.274;2023-04-03T22:59:52;3.67;;;2.80;;
21010;SDS011;10663;42.714;23.274;2023-04-03T23:01:32;2.50;;;2.30;;
